Time,TemperatureF,DewpointF,PressureIn,WindDirection,WindDirectionDegrees,WindSpeedMPH,WindSpeedGustMPH,Humidity,HourlyPrecipIn,Conditions,Clouds,dailyrainin,SoftwareType,DateUTC
2013-07-06 00:04:00,61.9,58.0,30.14,SSW,205,6.0,-999.0,87,-99.99,,,0.00,weatherlink.com 1.10,2013-07-06 04:04:00,
2013-07-06 00:19:00,61.9,59.0,30.15,SW,215,10.0,-999.0,91,-99.99,,,0.00,weatherlink.com 1.10,2013-07-06 04:19:00,
2013-07-06 00:34:00,61.7,59.0,30.15,South,175,5.0,-999.0,92,-99.99,,,0.00,weatherlink.com 1.10,2013-07-06 04:34:00,
2013-07-06 00:49:00,61.6,60.0,30.14,SSW,210,12.0,-999.0,93,-99.99,,,0.00,weatherlink.com 1.10,2013-07-06 04:49:00,
2013-07-06 01:04:00,61.4,59.0,30.14,SSW,209,8.0,-999.0,92,-99.99,,,0.00,weatherlink.com 1.10,2013-07-06 05:04:00,
2013-07-06 01:19:00,61.1,59.0,30.13,SSW,211,7.0,-999.0,93,-99.99,,,0.00,weatherlink.com 1.10,2013-07-06 05:19:00,
2013-07-06 01:34:00,61.2,59.0,30.13,SSW,210,9.0,-999.0,93,-99.99,,,0.00,weatherlink.com 1.10,2013-07-06 05:34:00,
2013-07-06 01:49:00,61.3,59.0,30.13,SSW,207,7.0,-999.0,93,-99.99,,,0.00,weatherlink.com 1.10,2013-07-06 05:49:00,
2013-07-06 02:04:00,61.5,59.0,30.12,WSW,237,8.0,-999.0,92,-99.99,,,0.00,weatherlink.com 1.10,2013-07-06 06:04:00,
2013-07-06 02:19:00,61.2,59.0,30.12,SSW,209,9.0,-999.0,93,-99.99,,,0.00,weatherlink.com 1.10,2013-07-06 06:19:00,
2013-07-06 02:34:00,61.3,59.0,30.13,SSW,212,7.0,-999.0,93,-99.99,,,0.00,weatherlink.com 1.10,2013-07-06 06:34:00,
2013-07-06 02:49:00,61.1,59.0,30.12,SSW,204,7.0,-999.0,93,-99.99,,,0.00,weatherlink.com 1.10,2013-07-06 06:49:00,
2013-07-06 03:04:00,61.0,59.0,30.12,SSW,209,10.0,-999.0,93,-99.99,,,0.00,weatherlink.com 1.10,2013-07-06 07:04:00,
2013-07-06 03:19:00,61.0,59.0,30.13,WSW,241,8.0,-999.0,93,-99.99,,,0.00,weatherlink.com 1.10,2013-07-06 07:19:00,
2013-07-06 03:34:00,60.7,59.0,30.13,SW,224,5.0,-999.0,93,-99.99,,,0.00,weatherlink.com 1.10,2013-07-06 07:34:00,
2013-07-06 03:49:00,60.8,59.0,30.12,SSW,212,7.0,-999.0,93,-99.99,,,0.00,weatherlink.com 1.10,2013-07-06 07:49:00,
2013-07-06 04:04:00,61.2,59.0,30.12,SW,221,6.0,-999.0,92,-99.99,,,0.00,weatherlink.com 1.10,2013-07-06 08:04:00,
2013-07-06 04:19:00,61.2,59.0,30.12,WSW,250,6.0,-999.0,91,-99.99,,,0.00,weatherlink.com 1.10,2013-07-06 08:19:00,
2013-07-06 04:34:00,61.0,59.0,30.12,SW,234,7.0,-999.0,92,-99.99,,,0.00,weatherlink.com 1.10,2013-07-06 08:34:00,
2013-07-06 04:49:00,60.9,59.0,30.12,SSW,210,6.0,-999.0,92,-99.99,,,0.00,weatherlink.com 1.10,2013-07-06 08:49:00,
2013-07-06 05:04:00,61.1,59.0,30.12,SSW,211,9.0,-999.0,92,-99.99,,,0.00,weatherlink.com 1.10,2013-07-06 09:04:00,
2013-07-06 05:19:00,61.2,59.0,30.12,SW,216,6.0,-999.0,92,-99.99,,,0.00,weatherlink.com 1.10,2013-07-06 09:19:00,
2013-07-06 05:34:00,60.9,59.0,30.13,SSW,211,8.0,-999.0,93,-99.99,,,0.00,weatherlink.com 1.10,2013-07-06 09:34:00,
2013-07-06 05:49:00,60.7,59.0,30.13,SW,229,8.0,-999.0,93,-99.99,,,0.00,weatherlink.com 1.10,2013-07-06 09:49:00,
2013-07-06 06:04:00,60.5,59.0,30.14,SW,216,5.0,-999.0,93,-99.99,,,0.00,weatherlink.com 1.10,2013-07-06 10:04:00,
2013-07-06 06:19:00,60.4,58.0,30.14,SW,218,5.0,-999.0,93,-99.99,,,0.00,weatherlink.com 1.10,2013-07-06 10:19:00,
2013-07-06 06:34:00,60.9,59.0,30.14,SSW,206,5.0,-999.0,93,-99.99,,,0.00,weatherlink.com 1.10,2013-07-06 10:34:00,
2013-07-06 06:49:00,61.2,59.0,30.14,SW,214,4.0,-999.0,93,-99.99,,,0.00,weatherlink.com 1.10,2013-07-06 10:49:00,
2013-07-06 07:04:00,61.5,59.0,30.14,SW,215,7.0,-999.0,92,-99.99,,,0.00,weatherlink.com 1.10,2013-07-06 11:04:00,
2013-07-06 07:19:00,61.9,60.0,30.14,SW,220,5.0,-999.0,93,-99.99,,,0.00,weatherlink.com 1.10,2013-07-06 11:19:00,
2013-07-06 07:34:00,61.8,60.0,30.14,SSW,211,3.0,-999.0,93,-99.99,,,0.00,weatherlink.com 1.10,2013-07-06 11:34:00,
2013-07-06 07:49:00,62.0,60.0,30.14,SSW,210,5.0,-999.0,93,-99.99,,,0.00,weatherlink.com 1.10,2013-07-06 11:49:00,
2013-07-06 08:04:00,62.8,61.0,30.14,SSW,192,4.0,-999.0,93,-99.99,,,0.00,weatherlink.com 1.10,2013-07-06 12:04:00,
2013-07-06 08:19:00,62.8,61.0,30.14,SW,218,8.0,-999.0,93,-99.99,,,0.00,weatherlink.com 1.10,2013-07-06 12:19:00,
2013-07-06 08:34:00,63.2,61.0,30.14,SSW,212,4.0,-999.0,93,-99.99,,,0.00,weatherlink.com 1.10,2013-07-06 12:34:00,
2013-07-06 08:50:00,64.7,62.0,30.14,SSW,194,6.0,-999.0,89,-99.99,,,0.00,weatherlink.com 1.10,2013-07-06 12:50:00,
2013-07-06 09:04:00,66.4,62.0,30.14,SW,222,2.0,-999.0,86,-99.99,,,0.00,weatherlink.com 1.10,2013-07-06 13:04:00,
2013-07-06 09:19:00,68.0,62.0,30.14,South,186,2.0,-999.0,82,-99.99,,,0.00,weatherlink.com 1.10,2013-07-06 13:19:00,
2013-07-06 09:34:00,70.0,62.0,30.14,SSW,196,7.0,-999.0,75,-99.99,,,0.00,weatherlink.com 1.10,2013-07-06 13:34:00,
2013-07-06 09:49:00,70.5,62.0,30.14,SSW,200,5.0,-999.0,75,-99.99,,,0.00,weatherlink.com 1.10,2013-07-06 13:49:00,
2013-07-06 10:04:00,69.7,63.0,30.14,SW,231,3.0,-999.0,79,-99.99,,,0.00,weatherlink.com 1.10,2013-07-06 14:04:00,
2013-07-06 10:19:00,69.8,63.0,30.14,South,173,4.0,-999.0,78,-99.99,,,0.00,weatherlink.com 1.10,2013-07-06 14:19:00,
2013-07-06 10:35:00,69.9,64.0,30.15,SSW,213,4.0,-999.0,81,-99.99,,,0.00,weatherlink.com 1.10,2013-07-06 14:35:00,
2013-07-06 10:49:00,69.2,63.0,30.15,SSW,211,7.0,-999.0,80,-99.99,,,0.00,weatherlink.com 1.10,2013-07-06 14:49:00,
2013-07-06 11:05:00,68.6,63.0,30.15,South,186,11.0,-999.0,83,-99.99,,,0.00,weatherlink.com 1.10,2013-07-06 15:05:00,
2013-07-06 11:20:00,69.8,64.0,30.15,South,183,8.0,-999.0,81,-99.99,,,0.00,weatherlink.com 1.10,2013-07-06 15:20:00,
2013-07-06 11:35:00,69.7,64.0,30.14,SSW,212,1.0,-999.0,82,-99.99,,,0.00,weatherlink.com 1.10,2013-07-06 15:35:00,
2013-07-06 11:50:00,71.5,65.0,30.14,SSE,148,2.0,-999.0,79,-99.99,,,0.00,weatherlink.com 1.10,2013-07-06 15:50:00,
2013-07-06 12:05:00,70.6,64.0,30.14,South,179,5.0,-999.0,80,-99.99,,,0.00,weatherlink.com 1.10,2013-07-06 16:05:00,
2013-07-06 12:20:00,71.1,65.0,30.14,South,175,2.0,-999.0,80,-99.99,,,0.00,weatherlink.com 1.10,2013-07-06 16:20:00,
2013-07-06 12:35:00,70.5,64.0,30.13,SW,219,8.0,-999.0,80,-99.99,,,0.00,weatherlink.com 1.10,2013-07-06 16:35:00,
2013-07-06 12:50:00,72.1,65.0,30.13,SSW,211,5.0,-999.0,78,-99.99,,,0.00,weatherlink.com 1.10,2013-07-06 16:50:00,
2013-07-06 13:05:00,73.2,65.0,30.12,SSE,150,1.0,-999.0,76,-99.99,,,0.00,weatherlink.com 1.10,2013-07-06 17:05:00,
2013-07-06 13:35:00,74.2,64.0,30.11,SSE,162,3.0,-999.0,71,-99.99,,,0.00,weatherlink.com 1.10,2013-07-06 17:35:00,
2013-07-06 14:05:00,73.1,64.0,30.09,South,190,3.0,-999.0,74,-99.99,,,0.00,weatherlink.com 1.10,2013-07-06 18:05:00,
2013-07-06 14:35:00,75.8,65.0,30.08,SSW,201,8.0,-999.0,69,-99.99,,,0.00,weatherlink.com 1.10,2013-07-06 18:35:00,
2013-07-06 14:50:00,74.7,65.0,30.08,South,184,1.0,-999.0,71,-99.99,,,0.00,weatherlink.com 1.10,2013-07-06 18:50:00,
2013-07-06 15:05:00,74.8,64.0,30.08,ESE,111,12.0,-999.0,68,-99.99,,,0.00,weatherlink.com 1.10,2013-07-06 19:05:00,
2013-07-06 15:35:00,73.9,62.0,30.08,SE,134,5.0,-999.0,67,-99.99,,,0.00,weatherlink.com 1.10,2013-07-06 19:35:00,
2013-07-06 15:50:00,75.5,63.0,30.07,SSE,166,7.0,-999.0,66,-99.99,,,0.00,weatherlink.com 1.10,2013-07-06 19:50:00,
2013-07-06 16:35:00,75.0,64.0,30.07,WSW,241,4.0,-999.0,69,-99.99,,,0.00,weatherlink.com 1.10,2013-07-06 20:35:00,
2013-07-06 16:50:00,73.2,64.0,30.06,South,182,7.0,-999.0,73,-99.99,,,0.00,weatherlink.com 1.10,2013-07-06 20:50:00,
2013-07-06 17:05:00,73.1,65.0,30.06,South,180,7.0,-999.0,75,-99.99,,,0.00,weatherlink.com 1.10,2013-07-06 21:05:00,
2013-07-06 17:20:00,72.6,65.0,30.05,South,190,13.0,-999.0,76,-99.99,,,0.00,weatherlink.com 1.10,2013-07-06 21:20:00,
2013-07-06 17:35:00,71.0,63.0,30.05,South,171,4.0,-999.0,77,-99.99,,,0.00,weatherlink.com 1.10,2013-07-06 21:35:00,
2013-07-06 17:50:00,72.7,64.0,30.05,SSE,159,5.0,-999.0,75,-99.99,,,0.00,weatherlink.com 1.10,2013-07-06 21:50:00,
2013-07-06 18:35:00,71.7,64.0,30.04,SSW,200,5.0,-999.0,76,-99.99,,,0.00,weatherlink.com 1.10,2013-07-06 22:35:00,
2013-07-06 19:05:00,68.8,63.0,30.05,SSE,152,10.0,-999.0,82,-99.99,,,0.00,weatherlink.com 1.10,2013-07-06 23:05:00,
2013-07-06 19:20:00,68.4,63.0,30.05,South,182,6.0,-999.0,83,-99.99,,,0.00,weatherlink.com 1.10,2013-07-06 23:20:00,
2013-07-06 19:35:00,69.3,64.0,30.05,South,178,10.0,-999.0,83,-99.99,,,0.00,weatherlink.com 1.10,2013-07-06 23:35:00,
2013-07-06 20:05:00,68.1,64.0,30.05,SSW,210,4.0,-999.0,85,-99.99,,,0.00,weatherlink.com 1.10,2013-07-07 00:05:00,
2013-07-06 20:20:00,66.5,62.0,30.05,SSE,166,5.0,-999.0,86,-99.99,,,0.00,weatherlink.com 1.10,2013-07-07 00:20:00,
2013-07-06 21:20:00,64.5,62.0,30.07,South,188,7.0,-999.0,92,-99.99,,,0.00,weatherlink.com 1.10,2013-07-07 01:20:00,
2013-07-06 21:50:00,63.9,62.0,30.08,South,178,6.0,-999.0,93,-99.99,,,0.00,weatherlink.com 1.10,2013-07-07 01:50:00,
2013-07-06 22:05:00,63.8,62.0,30.09,South,173,7.0,-999.0,93,-99.99,,,0.00,weatherlink.com 1.10,2013-07-07 02:05:00,
2013-07-06 22:21:00,63.6,61.0,30.09,SSW,195,10.0,-999.0,92,-99.99,,,0.00,weatherlink.com 1.10,2013-07-07 02:21:00,
2013-07-06 23:05:00,63.3,61.0,30.09,South,173,7.0,-999.0,91,-99.99,,,0.00,weatherlink.com 1.10,2013-07-07 03:05:00,
2013-07-06 23:21:00,63.1,61.0,30.08,South,191,4.0,-999.0,91,-99.99,,,0.00,weatherlink.com 1.10,2013-07-07 03:21:00,
2013-07-06 23:51:00,62.7,60.0,30.08,SW,219,11.0,-999.0,90,-99.99,,,0.00,weatherlink.com 1.10,2013-07-07 03:51:00,